sensor_id;sensor_type;location;lat;lon;timestamp;P1;durP1;ratioP1;P2;durP2;ratioP2
48925;SDS011;39838;59.938;30.642;2022-12-18T00:02:25;13.15;;;7.43;;
48925;SDS011;39838;59.938;30.642;2022-12-18T00:04:54;11.95;;;6.50;;
48925;SDS011;39838;59.938;30.642;2022-12-18T00:07:21;10.75;;;6.18;;
48925;SDS011;39838;59.938;30.642;2022-12-18T00:09:48;11.73;;;6.63;;
48925;SDS011;39838;59.938;30.642;2022-12-18T00:12:15;12.50;;;6.93;;
48925;SDS011;39838;59.938;30.642;2022-12-18T00:14:42;12.77;;;7.22;;
48925;SDS011;39838;59.938;30.642;2022-12-18T00:17:09;14.15;;;7.00;;
48925;SDS011;39838;59.938;30.642;2022-12-18T00:19:37;12.00;;;6.97;;
48925;SDS011;39838;59.938;30.642;2022-12-18T00:22:06;14.02;;;7.60;;
48925;SDS011;39838;59.938;30.642;2022-12-18T00:24:33;12.15;;;6.75;;
48925;SDS011;39838;59.938;30.642;2022-12-18T00:27:00;13.20;;;6.93;;
48925;SDS011;39838;59.938;30.642;2022-12-18T00:29:27;11.50;;;6.63;;
48925;SDS011;39838;59.938;30.642;2022-12-18T00:31:54;11.70;;;6.03;;
48925;SDS011;39838;59.938;30.642;2022-12-18T00:34:21;9.77;;;6.28;;
48925;SDS011;39838;59.938;30.642;2022-12-18T00:36:49;12.35;;;6.68;;
48925;SDS011;39838;59.938;30.642;2022-12-18T00:39:17;10.88;;;6.65;;
48925;SDS011;39838;59.938;30.642;2022-12-18T00:41:44;12.65;;;7.00;;
48925;SDS011;39838;59.938;30.642;2022-12-18T00:44:29;13.37;;;6.90;;
48925;SDS011;39838;59.938;30.642;2022-12-18T00:46:56;11.70;;;6.40;;
48925;SDS011;39838;59.938;30.642;2022-12-18T00:49:23;14.18;;;7.15;;
48925;SDS011;39838;59.938;30.642;2022-12-18T00:51:50;12.38;;;7.25;;
48925;SDS011;39838;59.938;30.642;2022-12-18T00:54:19;13.38;;;6.97;;
48925;SDS011;39838;59.938;30.642;2022-12-18T00:56:46;12.88;;;6.97;;
48925;SDS011;39838;59.938;30.642;2022-12-18T00:59:13;12.00;;;6.88;;
48925;SDS011;39838;59.938;30.642;2022-12-18T01:01:40;14.48;;;7.15;;
48925;SDS011;39838;59.938;30.642;2022-12-18T01:04:07;13.13;;;7.13;;
48925;SDS011;39838;59.938;30.642;2022-12-18T01:06:34;13.32;;;7.30;;
48925;SDS011;39838;59.938;30.642;2022-12-18T01:09:02;12.30;;;6.70;;
48925;SDS011;39838;59.938;30.642;2022-12-18T01:11:30;11.98;;;6.72;;
48925;SDS011;39838;59.938;30.642;2022-12-18T01:13:58;11.90;;;6.70;;
48925;SDS011;39838;59.938;30.642;2022-12-18T01:16:25;12.13;;;6.60;;
48925;SDS011;39838;59.938;30.642;2022-12-18T01:18:52;11.68;;;7.18;;
48925;SDS011;39838;59.938;30.642;2022-12-18T01:21:21;13.00;;;7.50;;
48925;SDS011;39838;59.938;30.642;2022-12-18T01:23:51;13.05;;;7.38;;
48925;SDS011;39838;59.938;30.642;2022-12-18T01:26:19;13.27;;;7.50;;
48925;SDS011;39838;59.938;30.642;2022-12-18T01:28:47;12.85;;;6.85;;
48925;SDS011;39838;59.938;30.642;2022-12-18T01:31:16;12.88;;;7.43;;
48925;SDS011;39838;59.938;30.642;2022-12-18T01:33:44;13.95;;;7.88;;
48925;SDS011;39838;59.938;30.642;2022-12-18T01:36:15;12.80;;;7.18;;
48925;SDS011;39838;59.938;30.642;2022-12-18T01:38:45;12.15;;;7.22;;
48925;SDS011;39838;59.938;30.642;2022-12-18T01:41:13;16.27;;;8.32;;
48925;SDS011;39838;59.938;30.642;2022-12-18T01:43:45;14.30;;;6.93;;
48925;SDS011;39838;59.938;30.642;2022-12-18T01:46:17;10.23;;;6.40;;
48925;SDS011;39838;59.938;30.642;2022-12-18T01:48:45;12.32;;;6.85;;
48925;SDS011;39838;59.938;30.642;2022-12-18T01:51:14;14.48;;;6.63;;
48925;SDS011;39838;59.938;30.642;2022-12-18T01:53:42;15.20;;;8.05;;
48925;SDS011;39838;59.938;30.642;2022-12-18T01:56:12;14.32;;;7.35;;
48925;SDS011;39838;59.938;30.642;2022-12-18T01:58:43;14.77;;;7.90;;
48925;SDS011;39838;59.938;30.642;2022-12-18T02:01:19;13.07;;;7.78;;
48925;SDS011;39838;59.938;30.642;2022-12-18T02:03:48;14.73;;;7.90;;
48925;SDS011;39838;59.938;30.642;2022-12-18T02:06:15;14.27;;;7.45;;
48925;SDS011;39838;59.938;30.642;2022-12-18T02:08:49;13.35;;;7.97;;
48925;SDS011;39838;59.938;30.642;2022-12-18T02:11:29;16.35;;;8.02;;
48925;SDS011;39838;59.938;30.642;2022-12-18T02:14:07;13.65;;;7.90;;
48925;SDS011;39838;59.938;30.642;2022-12-18T02:16:44;13.63;;;7.30;;
48925;SDS011;39838;59.938;30.642;2022-12-18T02:19:20;14.75;;;8.43;;
48925;SDS011;39838;59.938;30.642;2022-12-18T02:22:00;12.95;;;7.15;;
48925;SDS011;39838;59.938;30.642;2022-12-18T02:24:43;13.95;;;6.95;;
48925;SDS011;39838;59.938;30.642;2022-12-18T02:27:22;12.30;;;7.07;;
48925;SDS011;39838;59.938;30.642;2022-12-18T02:29:50;14.48;;;8.07;;
48925;SDS011;39838;59.938;30.642;2022-12-18T02:32:20;13.43;;;7.47;;
48925;SDS011;39838;59.938;30.642;2022-12-18T02:34:51;13.23;;;7.10;;
48925;SDS011;39838;59.938;30.642;2022-12-18T02:37:22;13.65;;;7.85;;
48925;SDS011;39838;59.938;30.642;2022-12-18T02:39:52;12.50;;;7.88;;
48925;SDS011;39838;59.938;30.642;2022-12-18T02:42:24;13.25;;;7.88;;
48925;SDS011;39838;59.938;30.642;2022-12-18T02:44:54;13.45;;;7.95;;
48925;SDS011;39838;59.938;30.642;2022-12-18T02:47:22;15.25;;;8.95;;
48925;SDS011;39838;59.938;30.642;2022-12-18T02:49:53;14.23;;;8.25;;
48925;SDS011;39838;59.938;30.642;2022-12-18T02:52:31;15.40;;;8.50;;
48925;SDS011;39838;59.938;30.642;2022-12-18T02:55:07;15.52;;;9.00;;
48925;SDS011;39838;59.938;30.642;2022-12-18T02:57:45;13.70;;;8.48;;
48925;SDS011;39838;59.938;30.642;2022-12-18T03:00:17;18.27;;;9.60;;
48925;SDS011;39838;59.938;30.642;2022-12-18T03:02:47;14.07;;;8.45;;
48925;SDS011;39838;59.938;30.642;2022-12-18T03:05:21;14.40;;;8.15;;
48925;SDS011;39838;59.938;30.642;2022-12-18T03:07:52;15.13;;;8.15;;
48925;SDS011;39838;59.938;30.642;2022-12-18T03:10:24;12.52;;;7.30;;
48925;SDS011;39838;59.938;30.642;2022-12-18T03:12:56;12.35;;;7.75;;
48925;SDS011;39838;59.938;30.642;2022-12-18T03:15:28;12.90;;;8.13;;
48925;SDS011;39838;59.938;30.642;2022-12-18T03:17:59;12.43;;;7.57;;
48925;SDS011;39838;59.938;30.642;2022-12-18T03:20:31;14.70;;;8.02;;
48925;SDS011;39838;59.938;30.642;2022-12-18T03:23:03;15.90;;;8.82;;
48925;SDS011;39838;59.938;30.642;2022-12-18T03:25:34;14.82;;;8.05;;
48925;SDS011;39838;59.938;30.642;2022-12-18T03:28:07;15.82;;;9.00;;
48925;SDS011;39838;59.938;30.642;2022-12-18T03:30:39;14.38;;;8.77;;
48925;SDS011;39838;59.938;30.642;2022-12-18T03:33:09;12.48;;;7.57;;
48925;SDS011;39838;59.938;30.642;2022-12-18T03:35:43;15.40;;;8.45;;
48925;SDS011;39838;59.938;30.642;2022-12-18T03:38:10;12.80;;;7.97;;
48925;SDS011;39838;59.938;30.642;2022-12-18T03:40:41;15.55;;;9.35;;
48925;SDS011;39838;59.938;30.642;2022-12-18T03:43:18;13.55;;;8.18;;
48925;SDS011;39838;59.938;30.642;2022-12-18T03:45:52;15.98;;;9.02;;
48925;SDS011;39838;59.938;30.642;2022-12-18T03:48:28;15.15;;;8.85;;
48925;SDS011;39838;59.938;30.642;2022-12-18T03:51:01;16.83;;;9.77;;
48925;SDS011;39838;59.938;30.642;2022-12-18T03:53:33;16.35;;;8.55;;
48925;SDS011;39838;59.938;30.642;2022-12-18T03:56:06;17.67;;;10.05;;
48925;SDS011;39838;59.938;30.642;2022-12-18T03:58:37;15.40;;;8.65;;
48925;SDS011;39838;59.938;30.642;2022-12-18T04:01:08;17.42;;;8.95;;
48925;SDS011;39838;59.938;30.642;2022-12-18T04:03:38;17.83;;;9.23;;
48925;SDS011;39838;59.938;30.642;2022-12-18T04:06:06;16.13;;;8.75;;
48925;SDS011;39838;59.938;30.642;2022-12-18T04:08:35;15.88;;;9.38;;
48925;SDS011;39838;59.938;30.642;2022-12-18T04:11:03;18.20;;;9.82;;
48925;SDS011;39838;59.938;30.642;2022-12-18T04:13:32;19.17;;;10.00;;
48925;SDS011;39838;59.938;30.642;2022-12-18T04:16:03;19.85;;;9.82;;
48925;SDS011;39838;59.938;30.642;2022-12-18T04:18:30;17.70;;;10.93;;
48925;SDS011;39838;59.938;30.642;2022-12-18T04:20:57;19.08;;;10.85;;
48925;SDS011;39838;59.938;30.642;2022-12-18T04:23:24;19.75;;;11.25;;
48925;SDS011;39838;59.938;30.642;2022-12-18T04:25:51;18.60;;;11.13;;
48925;SDS011;39838;59.938;30.642;2022-12-18T04:28:19;22.00;;;12.13;;
48925;SDS011;39838;59.938;30.642;2022-12-18T04:30:49;19.38;;;10.82;;
48925;SDS011;39838;59.938;30.642;2022-12-18T04:33:17;17.83;;;10.05;;
48925;SDS011;39838;59.938;30.642;2022-12-18T04:35:45;18.83;;;10.73;;
48925;SDS011;39838;59.938;30.642;2022-12-18T04:38:12;17.98;;;10.85;;
48925;SDS011;39838;59.938;30.642;2022-12-18T04:40:39;20.98;;;11.35;;
48925;SDS011;39838;59.938;30.642;2022-12-18T04:43:06;18.98;;;11.35;;
48925;SDS011;39838;59.938;30.642;2022-12-18T04:45:33;18.88;;;10.98;;
48925;SDS011;39838;59.938;30.642;2022-12-18T04:48:01;19.45;;;10.75;;
48925;SDS011;39838;59.938;30.642;2022-12-18T04:50:30;18.38;;;10.93;;
48925;SDS011;39838;59.938;30.642;2022-12-18T04:52:57;18.30;;;10.65;;
48925;SDS011;39838;59.938;30.642;2022-12-18T04:55:25;21.10;;;11.35;;
48925;SDS011;39838;59.938;30.642;2022-12-18T04:57:52;21.90;;;11.32;;
48925;SDS011;39838;59.938;30.642;2022-12-18T05:00:19;19.92;;;11.60;;
48925;SDS011;39838;59.938;30.642;2022-12-18T05:02:47;18.67;;;10.82;;
48925;SDS011;39838;59.938;30.642;2022-12-18T05:05:14;20.83;;;10.68;;
48925;SDS011;39838;59.938;30.642;2022-12-18T05:07:43;25.15;;;11.95;;
48925;SDS011;39838;59.938;30.642;2022-12-18T05:10:10;25.58;;;12.02;;
48925;SDS011;39838;59.938;30.642;2022-12-18T05:12:38;26.23;;;13.27;;
48925;SDS011;39838;59.938;30.642;2022-12-18T05:15:23;33.92;;;13.50;;
48925;SDS011;39838;59.938;30.642;2022-12-18T05:17:50;29.08;;;14.18;;
48925;SDS011;39838;59.938;30.642;2022-12-18T05:20:18;25.20;;;13.02;;
48925;SDS011;39838;59.938;30.642;2022-12-18T05:22:46;27.83;;;13.35;;
48925;SDS011;39838;59.938;30.642;2022-12-18T05:25:13;21.98;;;11.63;;
48925;SDS011;39838;59.938;30.642;2022-12-18T05:27:41;24.27;;;12.30;;
48925;SDS011;39838;59.938;30.642;2022-12-18T05:30:08;23.10;;;12.38;;
48925;SDS011;39838;59.938;30.642;2022-12-18T05:32:36;21.35;;;12.15;;
48925;SDS011;39838;59.938;30.642;2022-12-18T05:35:04;21.25;;;11.63;;
48925;SDS011;39838;59.938;30.642;2022-12-18T05:37:33;21.48;;;11.52;;
48925;SDS011;39838;59.938;30.642;2022-12-18T05:40:02;21.48;;;11.90;;
48925;SDS011;39838;59.938;30.642;2022-12-18T05:42:30;23.20;;;14.00;;
48925;SDS011;39838;59.938;30.642;2022-12-18T05:44:57;28.73;;;14.25;;
48925;SDS011;39838;59.938;30.642;2022-12-18T05:47:24;25.55;;;14.05;;
48925;SDS011;39838;59.938;30.642;2022-12-18T05:49:51;28.77;;;14.93;;
48925;SDS011;39838;59.938;30.642;2022-12-18T05:52:18;29.98;;;15.13;;
48925;SDS011;39838;59.938;30.642;2022-12-18T05:54:45;32.03;;;17.13;;
48925;SDS011;39838;59.938;30.642;2022-12-18T05:57:14;35.72;;;16.85;;
48925;SDS011;39838;59.938;30.642;2022-12-18T05:59:41;32.10;;;16.02;;
48925;SDS011;39838;59.938;30.642;2022-12-18T06:02:08;35.78;;;17.50;;
48925;SDS011;39838;59.938;30.642;2022-12-18T06:04:35;35.70;;;17.15;;
48925;SDS011;39838;59.938;30.642;2022-12-18T06:07:02;33.85;;;17.20;;
48925;SDS011;39838;59.938;30.642;2022-12-18T06:09:29;33.08;;;16.20;;
48925;SDS011;39838;59.938;30.642;2022-12-18T06:11:57;32.15;;;15.10;;
48925;SDS011;39838;59.938;30.642;2022-12-18T06:14:25;32.85;;;15.57;;
48925;SDS011;39838;59.938;30.642;2022-12-18T06:16:53;29.20;;;14.80;;
48925;SDS011;39838;59.938;30.642;2022-12-18T06:19:20;34.40;;;15.50;;
48925;SDS011;39838;59.938;30.642;2022-12-18T06:21:47;31.15;;;14.88;;
48925;SDS011;39838;59.938;30.642;2022-12-18T06:24:15;27.65;;;14.88;;
48925;SDS011;39838;59.938;30.642;2022-12-18T06:26:43;28.52;;;14.75;;
48925;SDS011;39838;59.938;30.642;2022-12-18T06:29:10;27.60;;;14.25;;
48925;SDS011;39838;59.938;30.642;2022-12-18T06:31:38;24.90;;;12.95;;
48925;SDS011;39838;59.938;30.642;2022-12-18T06:34:06;26.00;;;14.07;;
48925;SDS011;39838;59.938;30.642;2022-12-18T06:36:33;22.80;;;12.60;;
48925;SDS011;39838;59.938;30.642;2022-12-18T06:39:00;26.30;;;13.63;;
48925;SDS011;39838;59.938;30.642;2022-12-18T06:41:27;23.77;;;12.30;;
48925;SDS011;39838;59.938;30.642;2022-12-18T06:43:54;23.35;;;12.43;;
48925;SDS011;39838;59.938;30.642;2022-12-18T06:46:21;23.50;;;12.57;;
48925;SDS011;39838;59.938;30.642;2022-12-18T06:48:50;22.88;;;12.25;;
48925;SDS011;39838;59.938;30.642;2022-12-18T06:51:18;24.52;;;13.18;;
48925;SDS011;39838;59.938;30.642;2022-12-18T06:53:45;26.55;;;12.05;;
48925;SDS011;39838;59.938;30.642;2022-12-18T06:56:13;22.70;;;12.02;;
48925;SDS011;39838;59.938;30.642;2022-12-18T06:58:40;22.30;;;11.70;;
48925;SDS011;39838;59.938;30.642;2022-12-18T07:01:08;23.05;;;11.40;;
48925;SDS011;39838;59.938;30.642;2022-12-18T07:03:37;24.52;;;12.32;;
48925;SDS011;39838;59.938;30.642;2022-12-18T07:06:11;24.92;;;12.70;;
48925;SDS011;39838;59.938;30.642;2022-12-18T07:08:40;21.75;;;11.68;;
48925;SDS011;39838;59.938;30.642;2022-12-18T07:11:07;23.67;;;12.13;;
48925;SDS011;39838;59.938;30.642;2022-12-18T07:13:34;24.63;;;12.85;;
48925;SDS011;39838;59.938;30.642;2022-12-18T07:16:05;22.55;;;11.73;;
48925;SDS011;39838;59.938;30.642;2022-12-18T07:18:34;23.55;;;12.93;;
48925;SDS011;39838;59.938;30.642;2022-12-18T07:21:06;24.67;;;13.20;;
48925;SDS011;39838;59.938;30.642;2022-12-18T07:23:34;26.17;;;12.82;;
48925;SDS011;39838;59.938;30.642;2022-12-18T07:26:02;24.48;;;12.80;;
48925;SDS011;39838;59.938;30.642;2022-12-18T07:28:30;24.48;;;12.55;;
48925;SDS011;39838;59.938;30.642;2022-12-18T07:30:57;28.27;;;13.75;;
48925;SDS011;39838;59.938;30.642;2022-12-18T07:33:25;27.48;;;14.15;;
48925;SDS011;39838;59.938;30.642;2022-12-18T07:35:52;33.35;;;14.30;;
48925;SDS011;39838;59.938;30.642;2022-12-18T07:38:21;28.45;;;13.70;;
48925;SDS011;39838;59.938;30.642;2022-12-18T07:40:48;28.50;;;14.13;;
48925;SDS011;39838;59.938;30.642;2022-12-18T07:43:15;29.00;;;14.05;;
48925;SDS011;39838;59.938;30.642;2022-12-18T07:45:42;30.63;;;14.05;;
48925;SDS011;39838;59.938;30.642;2022-12-18T07:48:10;30.95;;;14.90;;
48925;SDS011;39838;59.938;30.642;2022-12-18T07:50:37;32.17;;;15.30;;
48925;SDS011;39838;59.938;30.642;2022-12-18T07:53:04;34.80;;;17.13;;
48925;SDS011;39838;59.938;30.642;2022-12-18T07:55:33;31.15;;;16.42;;
48925;SDS011;39838;59.938;30.642;2022-12-18T07:58:01;41.90;;;17.73;;
48925;SDS011;39838;59.938;30.642;2022-12-18T08:00:29;39.35;;;17.65;;
48925;SDS011;39838;59.938;30.642;2022-12-18T08:02:56;44.50;;;18.60;;
48925;SDS011;39838;59.938;30.642;2022-12-18T08:05:23;36.33;;;16.17;;
48925;SDS011;39838;59.938;30.642;2022-12-18T08:07:51;36.67;;;16.27;;
48925;SDS011;39838;59.938;30.642;2022-12-18T08:10:18;36.80;;;16.63;;
48925;SDS011;39838;59.938;30.642;2022-12-18T08:12:46;33.10;;;15.90;;
48925;SDS011;39838;59.938;30.642;2022-12-18T08:15:15;40.05;;;16.77;;
48925;SDS011;39838;59.938;30.642;2022-12-18T08:17:43;38.72;;;18.30;;
48925;SDS011;39838;59.938;30.642;2022-12-18T08:20:10;41.63;;;19.02;;
48925;SDS011;39838;59.938;30.642;2022-12-18T08:22:40;47.63;;;19.17;;
48925;SDS011;39838;59.938;30.642;2022-12-18T08:25:08;46.75;;;20.98;;
48925;SDS011;39838;59.938;30.642;2022-12-18T08:27:35;46.92;;;20.25;;
48925;SDS011;39838;59.938;30.642;2022-12-18T08:30:05;52.97;;;20.50;;
48925;SDS011;39838;59.938;30.642;2022-12-18T08:32:33;48.90;;;20.23;;
48925;SDS011;39838;59.938;30.642;2022-12-18T08:35:02;57.15;;;22.70;;
48925;SDS011;39838;59.938;30.642;2022-12-18T08:37:29;54.78;;;21.80;;
48925;SDS011;39838;59.938;30.642;2022-12-18T08:39:56;55.35;;;21.40;;
48925;SDS011;39838;59.938;30.642;2022-12-18T08:42:23;55.05;;;23.67;;
48925;SDS011;39838;59.938;30.642;2022-12-18T08:45:09;50.25;;;20.23;;
48925;SDS011;39838;59.938;30.642;2022-12-18T08:47:37;50.28;;;20.25;;
48925;SDS011;39838;59.938;30.642;2022-12-18T08:50:04;41.92;;;20.27;;
48925;SDS011;39838;59.938;30.642;2022-12-18T08:52:36;50.97;;;20.83;;
48925;SDS011;39838;59.938;30.642;2022-12-18T08:55:03;44.88;;;18.52;;
48925;SDS011;39838;59.938;30.642;2022-12-18T08:57:31;44.13;;;18.40;;
48925;SDS011;39838;59.938;30.642;2022-12-18T08:59:58;44.65;;;18.85;;
48925;SDS011;39838;59.938;30.642;2022-12-18T09:02:27;43.45;;;17.10;;
48925;SDS011;39838;59.938;30.642;2022-12-18T09:04:54;40.00;;;18.27;;
48925;SDS011;39838;59.938;30.642;2022-12-18T09:07:21;43.72;;;19.20;;
48925;SDS011;39838;59.938;30.642;2022-12-18T09:09:48;43.40;;;17.40;;
48925;SDS011;39838;59.938;30.642;2022-12-18T09:12:15;43.03;;;17.60;;
48925;SDS011;39838;59.938;30.642;2022-12-18T09:14:42;41.15;;;18.42;;
48925;SDS011;39838;59.938;30.642;2022-12-18T09:17:10;49.25;;;19.35;;
48925;SDS011;39838;59.938;30.642;2022-12-18T09:19:38;38.35;;;17.33;;
48925;SDS011;39838;59.938;30.642;2022-12-18T09:22:09;38.95;;;17.55;;
48925;SDS011;39838;59.938;30.642;2022-12-18T09:24:36;45.60;;;18.70;;
48925;SDS011;39838;59.938;30.642;2022-12-18T09:27:03;43.60;;;17.27;;
48925;SDS011;39838;59.938;30.642;2022-12-18T09:29:30;42.78;;;17.98;;
48925;SDS011;39838;59.938;30.642;2022-12-18T09:31:57;42.67;;;18.33;;
48925;SDS011;39838;59.938;30.642;2022-12-18T09:34:24;44.72;;;20.10;;
48925;SDS011;39838;59.938;30.642;2022-12-18T09:36:53;43.80;;;19.05;;
48925;SDS011;39838;59.938;30.642;2022-12-18T09:39:20;47.40;;;18.75;;
48925;SDS011;39838;59.938;30.642;2022-12-18T09:41:47;43.33;;;18.27;;
48925;SDS011;39838;59.938;30.642;2022-12-18T09:44:23;43.10;;;19.20;;
48925;SDS011;39838;59.938;30.642;2022-12-18T09:46:54;40.05;;;18.00;;
48925;SDS011;39838;59.938;30.642;2022-12-18T09:49:29;40.35;;;18.00;;
48925;SDS011;39838;59.938;30.642;2022-12-18T09:52:03;33.80;;;16.38;;
48925;SDS011;39838;59.938;30.642;2022-12-18T09:54:36;37.07;;;16.20;;
48925;SDS011;39838;59.938;30.642;2022-12-18T09:57:09;35.50;;;15.73;;
48925;SDS011;39838;59.938;30.642;2022-12-18T09:59:39;35.78;;;16.73;;
48925;SDS011;39838;59.938;30.642;2022-12-18T10:02:14;34.38;;;15.75;;
48925;SDS011;39838;59.938;30.642;2022-12-18T10:04:44;37.88;;;16.55;;
48925;SDS011;39838;59.938;30.642;2022-12-18T10:07:24;29.13;;;14.85;;
48925;SDS011;39838;59.938;30.642;2022-12-18T10:09:59;34.50;;;16.20;;
48925;SDS011;39838;59.938;30.642;2022-12-18T10:12:36;34.50;;;16.23;;
48925;SDS011;39838;59.938;30.642;2022-12-18T10:17:42;34.10;;;15.70;;
48925;SDS011;39838;59.938;30.642;2022-12-18T10:20:16;31.70;;;14.90;;
48925;SDS011;39838;59.938;30.642;2022-12-18T10:22:53;26.85;;;14.48;;
48925;SDS011;39838;59.938;30.642;2022-12-18T10:25:26;27.38;;;13.85;;
48925;SDS011;39838;59.938;30.642;2022-12-18T10:28:00;28.25;;;14.07;;
48925;SDS011;39838;59.938;30.642;2022-12-18T10:30:36;26.80;;;12.25;;
48925;SDS011;39838;59.938;30.642;2022-12-18T10:33:05;25.50;;;12.80;;
48925;SDS011;39838;59.938;30.642;2022-12-18T10:35:37;25.90;;;12.82;;
48925;SDS011;39838;59.938;30.642;2022-12-18T10:38:21;24.90;;;12.52;;
48925;SDS011;39838;59.938;30.642;2022-12-18T10:40:51;22.10;;;11.70;;
48925;SDS011;39838;59.938;30.642;2022-12-18T10:43:21;28.90;;;12.18;;
48925;SDS011;39838;59.938;30.642;2022-12-18T10:46:01;26.33;;;12.77;;
48925;SDS011;39838;59.938;30.642;2022-12-18T10:48:41;27.20;;;11.60;;
48925;SDS011;39838;59.938;30.642;2022-12-18T10:51:20;23.90;;;12.10;;
48925;SDS011;39838;59.938;30.642;2022-12-18T10:53:54;24.35;;;11.63;;
48925;SDS011;39838;59.938;30.642;2022-12-18T10:56:24;23.00;;;11.90;;
48925;SDS011;39838;59.938;30.642;2022-12-18T10:58:56;26.88;;;12.98;;
48925;SDS011;39838;59.938;30.642;2022-12-18T11:01:25;25.75;;;12.45;;
48925;SDS011;39838;59.938;30.642;2022-12-18T11:04:00;26.20;;;12.07;;
48925;SDS011;39838;59.938;30.642;2022-12-18T11:06:33;26.15;;;12.50;;
48925;SDS011;39838;59.938;30.642;2022-12-18T11:09:20;24.92;;;12.60;;
48925;SDS011;39838;59.938;30.642;2022-12-18T11:11:49;33.17;;;12.95;;
48925;SDS011;39838;59.938;30.642;2022-12-18T11:14:20;32.60;;;14.13;;
48925;SDS011;39838;59.938;30.642;2022-12-18T11:16:49;28.52;;;14.07;;
48925;SDS011;39838;59.938;30.642;2022-12-18T11:19:24;28.00;;;13.57;;
48925;SDS011;39838;59.938;30.642;2022-12-18T11:21:57;24.17;;;12.00;;
48925;SDS011;39838;59.938;30.642;2022-12-18T11:24:28;21.88;;;11.43;;
48925;SDS011;39838;59.938;30.642;2022-12-18T11:26:57;24.38;;;11.88;;
48925;SDS011;39838;59.938;30.642;2022-12-18T11:29:36;23.25;;;10.32;;
48925;SDS011;39838;59.938;30.642;2022-12-18T11:32:26;23.63;;;10.07;;
48925;SDS011;39838;59.938;30.642;2022-12-18T11:35:01;25.15;;;10.15;;
48925;SDS011;39838;59.938;30.642;2022-12-18T11:37:38;21.17;;;10.00;;
48925;SDS011;39838;59.938;30.642;2022-12-18T11:40:10;23.48;;;9.90;;
48925;SDS011;39838;59.938;30.642;2022-12-18T11:42:44;22.20;;;9.13;;
48925;SDS011;39838;59.938;30.642;2022-12-18T11:45:29;20.60;;;9.48;;
48925;SDS011;39838;59.938;30.642;2022-12-18T11:48:02;24.45;;;11.48;;
48925;SDS011;39838;59.938;30.642;2022-12-18T11:50:40;19.67;;;9.70;;
48925;SDS011;39838;59.938;30.642;2022-12-18T11:53:12;23.27;;;9.35;;
48925;SDS011;39838;59.938;30.642;2022-12-18T11:55:43;19.08;;;10.05;;
48925;SDS011;39838;59.938;30.642;2022-12-18T11:58:24;18.48;;;9.27;;
48925;SDS011;39838;59.938;30.642;2022-12-18T12:01:06;19.80;;;8.43;;
48925;SDS011;39838;59.938;30.642;2022-12-18T12:03:48;23.42;;;9.05;;
48925;SDS011;39838;59.938;30.642;2022-12-18T12:06:25;19.58;;;9.02;;
48925;SDS011;39838;59.938;30.642;2022-12-18T12:09:04;20.02;;;9.63;;
48925;SDS011;39838;59.938;30.642;2022-12-18T12:11:42;19.27;;;9.85;;
48925;SDS011;39838;59.938;30.642;2022-12-18T12:14:22;20.30;;;9.38;;
48925;SDS011;39838;59.938;30.642;2022-12-18T12:17:02;21.58;;;9.90;;
48925;SDS011;39838;59.938;30.642;2022-12-18T12:19:38;23.70;;;9.05;;
48925;SDS011;39838;59.938;30.642;2022-12-18T12:22:13;18.60;;;8.02;;
48925;SDS011;39838;59.938;30.642;2022-12-18T12:24:53;21.15;;;8.73;;
48925;SDS011;39838;59.938;30.642;2022-12-18T12:27:33;18.95;;;8.02;;
48925;SDS011;39838;59.938;30.642;2022-12-18T12:30:09;17.15;;;8.32;;
48925;SDS011;39838;59.938;30.642;2022-12-18T12:32:45;18.23;;;9.10;;
48925;SDS011;39838;59.938;30.642;2022-12-18T12:35:28;18.30;;;8.38;;
48925;SDS011;39838;59.938;30.642;2022-12-18T12:38:08;19.80;;;9.70;;
48925;SDS011;39838;59.938;30.642;2022-12-18T12:43:15;19.45;;;8.45;;
48925;SDS011;39838;59.938;30.642;2022-12-18T12:45:48;19.95;;;9.27;;
48925;SDS011;39838;59.938;30.642;2022-12-18T12:48:22;22.52;;;9.50;;
48925;SDS011;39838;59.938;30.642;2022-12-18T12:51:00;21.25;;;9.73;;
48925;SDS011;39838;59.938;30.642;2022-12-18T12:53:31;22.38;;;9.07;;
48925;SDS011;39838;59.938;30.642;2022-12-18T12:56:02;21.33;;;9.13;;
48925;SDS011;39838;59.938;30.642;2022-12-18T12:58:34;23.58;;;9.77;;
48925;SDS011;39838;59.938;30.642;2022-12-18T13:01:08;24.50;;;9.75;;
48925;SDS011;39838;59.938;30.642;2022-12-18T13:03:43;20.83;;;9.65;;
48925;SDS011;39838;59.938;30.642;2022-12-18T13:08:53;23.02;;;10.07;;
48925;SDS011;39838;59.938;30.642;2022-12-18T13:11:32;23.70;;;10.52;;
48925;SDS011;39838;59.938;30.642;2022-12-18T13:14:23;26.80;;;10.13;;
48925;SDS011;39838;59.938;30.642;2022-12-18T13:20:06;26.02;;;11.07;;
48925;SDS011;39838;59.938;30.642;2022-12-18T13:22:38;25.85;;;11.40;;
48925;SDS011;39838;59.938;30.642;2022-12-18T13:28:03;22.00;;;10.68;;
48925;SDS011;39838;59.938;30.642;2022-12-18T13:30:47;22.20;;;9.93;;
48925;SDS011;39838;59.938;30.642;2022-12-18T13:36:16;21.77;;;10.75;;
48925;SDS011;39838;59.938;30.642;2022-12-18T13:41:47;24.10;;;9.93;;
48925;SDS011;39838;59.938;30.642;2022-12-18T13:44:21;25.10;;;11.48;;
48925;SDS011;39838;59.938;30.642;2022-12-18T13:46:53;31.23;;;11.38;;
48925;SDS011;39838;59.938;30.642;2022-12-18T13:49:21;25.05;;;11.60;;
48925;SDS011;39838;59.938;30.642;2022-12-18T13:51:53;29.67;;;13.27;;
48925;SDS011;39838;59.938;30.642;2022-12-18T13:54:23;29.05;;;12.75;;
48925;SDS011;39838;59.938;30.642;2022-12-18T13:56:55;39.33;;;14.23;;
48925;SDS011;39838;59.938;30.642;2022-12-18T13:59:23;31.13;;;12.75;;
48925;SDS011;39838;59.938;30.642;2022-12-18T14:01:52;26.98;;;11.70;;
48925;SDS011;39838;59.938;30.642;2022-12-18T14:04:24;29.42;;;11.73;;
48925;SDS011;39838;59.938;30.642;2022-12-18T14:06:55;36.63;;;14.07;;
48925;SDS011;39838;59.938;30.642;2022-12-18T14:09:26;30.13;;;12.18;;
48925;SDS011;39838;59.938;30.642;2022-12-18T14:11:55;27.35;;;11.93;;
48925;SDS011;39838;59.938;30.642;2022-12-18T14:14:37;28.25;;;12.35;;
48925;SDS011;39838;59.938;30.642;2022-12-18T14:17:10;22.52;;;11.02;;
48925;SDS011;39838;59.938;30.642;2022-12-18T14:19:41;25.42;;;11.20;;
48925;SDS011;39838;59.938;30.642;2022-12-18T14:22:19;26.77;;;10.00;;
48925;SDS011;39838;59.938;30.642;2022-12-18T14:25:04;22.52;;;9.73;;
48925;SDS011;39838;59.938;30.642;2022-12-18T14:27:41;22.17;;;10.43;;
48925;SDS011;39838;59.938;30.642;2022-12-18T14:33:01;24.45;;;9.85;;
48925;SDS011;39838;59.938;30.642;2022-12-18T14:35:29;25.75;;;11.38;;
48925;SDS011;39838;59.938;30.642;2022-12-18T14:38:09;18.83;;;10.00;;
48925;SDS011;39838;59.938;30.642;2022-12-18T14:40:37;21.58;;;10.45;;
48925;SDS011;39838;59.938;30.642;2022-12-18T14:43:04;22.90;;;9.50;;
48925;SDS011;39838;59.938;30.642;2022-12-18T14:45:32;25.67;;;10.52;;
48925;SDS011;39838;59.938;30.642;2022-12-18T14:48:07;21.63;;;10.20;;
48925;SDS011;39838;59.938;30.642;2022-12-18T14:50:36;24.70;;;10.25;;
48925;SDS011;39838;59.938;30.642;2022-12-18T14:53:03;29.38;;;10.98;;
48925;SDS011;39838;59.938;30.642;2022-12-18T14:55:33;21.95;;;10.32;;
48925;SDS011;39838;59.938;30.642;2022-12-18T14:58:03;26.08;;;11.15;;